createdAt,value
2022-11-09T00:00:45.855Z,12.82
2022-11-09T00:05:56.642Z,12.90
2022-11-09T00:11:05.267Z,12.91
2022-11-09T00:16:11.658Z,12.90
2022-11-09T00:21:16.810Z,12.85
2022-11-09T00:26:21.374Z,12.87
2022-11-09T00:31:26.397Z,12.90
2022-11-09T00:36:30.894Z,12.88
2022-11-09T00:41:34.084Z,12.84
2022-11-09T00:46:38.662Z,12.88
2022-11-09T00:51:41.981Z,12.85
2022-11-09T00:56:45.193Z,12.90
2022-11-09T01:01:49.843Z,12.92
2022-11-09T01:06:53.011Z,12.95
2022-11-09T01:11:56.191Z,12.93
2022-11-09T01:17:00.794Z,12.91
2022-11-09T01:22:03.949Z,12.95
2022-11-09T01:27:07.100Z,12.96
2022-11-09T01:32:11.722Z,12.96
2022-11-09T01:37:14.866Z,12.93
2022-11-09T01:42:25.310Z,12.94
2022-11-09T01:47:30.027Z,12.95
2022-11-09T01:52:37.398Z,12.92
2022-11-09T01:57:45.857Z,12.94
2022-11-09T02:02:56.531Z,12.94
2022-11-09T02:08:01.911Z,12.94
2022-11-09T02:13:05.451Z,12.97
2022-11-09T02:18:10.222Z,13.00
2022-11-09T02:23:15.342Z,13.01
2022-11-09T02:28:19.082Z,13.01
2022-11-09T02:33:22.800Z,12.97
2022-11-09T02:38:27.391Z,12.98
2022-11-09T02:43:30.621Z,12.99
2022-11-09T02:48:33.806Z,12.99
2022-11-09T02:53:38.422Z,13.01
2022-11-09T02:58:41.610Z,13.01
2022-11-09T03:03:45.056Z,12.98
2022-11-09T03:08:49.665Z,13.05
2022-11-09T03:13:52.847Z,13.04
2022-11-09T03:18:56.874Z,13.03
2022-11-09T03:24:01.494Z,13.05
2022-11-09T03:29:04.701Z,13.09
2022-11-09T03:34:07.862Z,13.12
2022-11-09T03:39:12.425Z,13.13
2022-11-09T03:44:15.555Z,13.16
2022-11-09T03:49:18.819Z,13.15
2022-11-09T03:54:23.429Z,13.15
2022-11-09T03:59:26.649Z,13.11
2022-11-09T04:04:29.910Z,13.14
2022-11-09T04:09:34.566Z,13.18
2022-11-09T04:14:37.838Z,13.17
2022-11-09T04:19:41.193Z,13.18
2022-11-09T04:24:45.883Z,13.17
2022-11-09T04:29:49.156Z,13.15
2022-11-09T04:34:52.374Z,13.15
2022-11-09T04:39:56.998Z,13.16
2022-11-09T04:45:00.214Z,13.20
2022-11-09T04:50:03.438Z,13.22
2022-11-09T04:55:09.764Z,13.23
2022-11-09T05:00:13.976Z,13.23
2022-11-09T05:05:17.257Z,13.26
2022-11-09T05:10:21.998Z,13.25
2022-11-09T05:15:25.266Z,13.22
2022-11-09T05:20:29.209Z,13.24
2022-11-09T05:25:33.960Z,13.26
2022-11-09T05:30:37.205Z,13.27
2022-11-09T05:35:40.463Z,13.32
2022-11-09T05:40:45.111Z,13.31
2022-11-09T05:45:48.991Z,13.33
2022-11-09T05:50:52.279Z,13.33
2022-11-09T05:55:57.107Z,13.34
2022-11-09T06:01:00.277Z,13.29
2022-11-09T06:06:08.632Z,13.27
2022-11-09T06:11:21.891Z,13.28
2022-11-09T06:16:26.734Z,13.27
2022-11-09T06:21:29.984Z,13.23
2022-11-09T06:26:34.699Z,13.20
2022-11-09T06:31:37.921Z,13.19
2022-11-09T06:36:41.085Z,13.19
2022-11-09T06:41:47.608Z,13.23
2022-11-09T06:46:50.950Z,13.22
2022-11-09T06:51:54.135Z,13.19
2022-11-09T06:56:58.656Z,13.15
2022-11-09T07:02:02.384Z,13.10
2022-11-09T07:07:05.610Z,13.03
2022-11-09T07:12:10.627Z,12.94
2022-11-09T07:17:13.746Z,12.93
2022-11-09T07:22:17.171Z,12.83
2022-11-09T07:27:27.362Z,12.88
2022-11-09T07:33:07.548Z,12.86
2022-11-09T07:38:01.253Z,12.86
2022-11-09T07:43:07.303Z,12.75
2022-11-09T07:48:12.707Z,12.69
2022-11-09T07:53:17.021Z,12.79
2022-11-09T07:58:21.592Z,12.85
2022-11-09T08:03:25.908Z,12.78
2022-11-09T08:08:29.074Z,12.78
2022-11-09T08:13:34.263Z,13.00
2022-11-09T08:18:37.440Z,13.11
2022-11-09T08:23:40.967Z,13.17
2022-11-09T08:28:45.501Z,13.33
2022-11-09T08:33:48.666Z,13.43
2022-11-09T08:38:51.798Z,13.56
2022-11-09T08:43:56.356Z,13.63
2022-11-09T08:48:59.537Z,13.64
2022-11-09T08:54:02.892Z,13.79
2022-11-09T08:59:07.415Z,13.83
2022-11-09T09:04:10.584Z,13.98
2022-11-09T09:09:13.828Z,14.06
2022-11-09T09:14:18.410Z,14.12
2022-11-09T09:19:21.584Z,14.29
2022-11-09T09:24:24.867Z,14.40
2022-11-09T09:29:29.417Z,14.62
2022-11-09T09:34:32.716Z,14.79
2022-11-09T09:39:35.864Z,14.80
2022-11-09T09:44:45.071Z,14.83
2022-11-09T09:50:05.806Z,14.87
2022-11-09T09:55:20.365Z,14.94
2022-11-09T10:00:28.004Z,14.98
2022-11-09T10:05:44.578Z,15.10
2022-11-09T10:10:57.773Z,15.42
2022-11-09T10:16:09.302Z,15.79
2022-11-09T10:21:35.477Z,15.86
2022-11-09T10:26:44.253Z,15.82
2022-11-09T10:31:51.700Z,15.85
2022-11-09T10:37:02.755Z,15.84
2022-11-09T10:42:05.980Z,15.89
2022-11-09T10:47:13.495Z,15.99
2022-11-09T10:52:33.325Z,15.91
2022-11-09T10:57:36.551Z,15.78
2022-11-09T11:02:50.141Z,16.05
2022-11-09T11:07:53.308Z,16.35
2022-11-09T11:13:25.433Z,16.41
2022-11-09T11:18:32.761Z,16.43
2022-11-09T11:23:37.168Z,16.45
2022-11-09T11:28:43.953Z,16.50
2022-11-09T11:33:49.553Z,16.63
2022-11-09T11:39:02.850Z,16.99
2022-11-09T11:44:22.188Z,17.26
2022-11-09T11:49:42.514Z,17.41
2022-11-09T11:55:02.947Z,17.54
2022-11-09T12:00:13.542Z,17.47
2022-11-09T12:05:55.182Z,17.38
2022-11-09T12:11:10.346Z,17.19
2022-11-09T12:16:24.838Z,16.75
2022-11-09T12:21:37.500Z,16.41
2022-11-09T12:27:11.255Z,16.34
2022-11-09T12:32:29.198Z,16.36
2022-11-09T12:37:38.603Z,16.25
2022-11-09T12:42:47.583Z,16.18
2022-11-09T12:47:54.837Z,16.17
2022-11-09T12:52:58.582Z,16.22
2022-11-09T12:58:03.280Z,16.40
2022-11-09T13:03:07.082Z,16.80
2022-11-09T13:08:19.131Z,17.72
2022-11-09T13:13:26.370Z,18.61
2022-11-09T13:18:51.500Z,19.15
2022-11-09T13:24:04.588Z,18.95
2022-11-09T13:29:23.893Z,18.26
2022-11-09T13:34:44.546Z,17.75
2022-11-09T13:39:47.899Z,17.61
2022-11-09T13:44:52.660Z,17.64
2022-11-09T13:49:56.212Z,18.02
2022-11-09T13:54:59.639Z,18.57
2022-11-09T14:00:06.835Z,18.50
2022-11-09T14:05:24.906Z,19.19
2022-11-09T14:10:45.563Z,18.94
2022-11-09T14:15:56.728Z,18.48
2022-11-09T14:21:08.616Z,18.05
2022-11-09T14:26:18.719Z,17.82
2022-11-09T14:31:26.550Z,17.70
2022-11-09T14:36:31.763Z,17.64
2022-11-09T14:41:36.218Z,17.58
2022-11-09T14:46:40.644Z,17.40
2022-11-09T14:51:44.206Z,17.53
2022-11-09T14:56:48.063Z,17.81
2022-11-09T15:02:06.238Z,17.97
2022-11-09T15:07:19.716Z,18.07
2022-11-09T15:12:23.367Z,18.01
2022-11-09T15:17:31.099Z,17.90
2022-11-09T15:22:50.550Z,17.85
2022-11-09T15:27:59.903Z,17.69
2022-11-09T15:33:17.575Z,17.78
2022-11-09T15:38:36.845Z,17.76
2022-11-09T15:43:40.059Z,17.75
2022-11-09T15:48:46.328Z,17.64
2022-11-09T15:53:49.612Z,17.54
2022-11-09T15:58:53.717Z,17.43
2022-11-09T16:03:58.279Z,17.21
2022-11-09T16:09:01.181Z,17.05
2022-11-09T16:14:05.234Z,17.00
2022-11-09T16:19:14.475Z,16.90
2022-11-09T16:24:17.822Z,16.83
2022-11-09T16:29:21.733Z,16.78
2022-11-09T16:34:26.319Z,16.73
2022-11-09T16:39:29.218Z,16.62
2022-11-09T16:44:35.322Z,16.61
2022-11-09T16:49:39.999Z,16.59
2022-11-09T16:54:42.892Z,16.51
2022-11-09T16:59:46.050Z,16.54
2022-11-09T17:04:50.608Z,16.53
2022-11-09T17:09:53.473Z,16.41
2022-11-09T17:14:56.660Z,16.31
2022-11-09T17:20:01.577Z,16.21
2022-11-09T17:25:05.590Z,16.13
2022-11-09T17:30:10.754Z,16.08
2022-11-09T17:35:15.429Z,16.06
2022-11-09T17:40:20.100Z,16.02
2022-11-09T17:45:23.284Z,16.10
2022-11-09T17:50:27.841Z,16.12
2022-11-09T17:55:31.029Z,16.17
2022-11-09T18:00:34.221Z,16.19
2022-11-09T18:05:40.451Z,16.19
2022-11-09T18:10:46.519Z,16.20
2022-11-09T18:15:49.718Z,16.22
2022-11-09T18:20:54.287Z,16.23
2022-11-09T18:25:58.573Z,16.19
2022-11-09T18:31:03.077Z,16.18
2022-11-09T18:36:11.500Z,16.14
2022-11-09T18:41:18.926Z,16.06
2022-11-09T18:46:23.037Z,15.98
2022-11-09T18:51:27.595Z,15.97
2022-11-09T18:56:30.707Z,15.99
2022-11-09T19:01:33.880Z,15.95
2022-11-09T19:06:38.518Z,15.84
2022-11-09T19:11:41.778Z,15.67
2022-11-09T19:16:45.074Z,15.66
2022-11-09T19:21:51.482Z,15.70
2022-11-09T19:26:55.855Z,15.69
2022-11-09T19:31:58.970Z,15.66
2022-11-09T19:37:03.563Z,15.71
2022-11-09T19:42:07.359Z,15.69
2022-11-09T19:47:11.443Z,15.63
2022-11-09T19:52:15.937Z,15.58
2022-11-09T19:57:19.098Z,15.60
2022-11-09T20:02:22.314Z,15.65
2022-11-09T20:07:29.697Z,15.60
2022-11-09T20:12:58.856Z,15.55
2022-11-09T20:18:02.066Z,15.45
2022-11-09T20:23:06.758Z,15.39
2022-11-09T20:28:09.617Z,15.33
2022-11-09T20:33:12.779Z,15.22
2022-11-09T20:38:17.360Z,15.13
2022-11-09T20:43:20.589Z,15.18
2022-11-09T20:48:52.059Z,15.12
2022-11-09T20:53:50.351Z,15.09
2022-11-09T20:58:53.527Z,15.11
2022-11-09T21:03:56.658Z,15.18
2022-11-09T21:09:01.690Z,15.27
2022-11-09T21:14:05.297Z,15.27
2022-11-09T21:19:08.765Z,15.23
2022-11-09T21:24:30.567Z,15.16
2022-11-09T21:29:51.736Z,15.18
2022-11-09T21:34:54.907Z,15.20
2022-11-09T21:39:59.449Z,15.26
2022-11-09T21:45:02.625Z,15.26
2022-11-09T21:50:12.118Z,15.25
2022-11-09T21:55:17.298Z,15.30
2022-11-09T22:00:21.262Z,15.23
2022-11-09T22:05:24.433Z,15.28
2022-11-09T22:10:29.032Z,15.30
2022-11-09T22:15:49.073Z,15.28
2022-11-09T22:20:58.014Z,15.31
2022-11-09T22:26:03.783Z,15.23
2022-11-09T22:31:08.510Z,15.13
2022-11-09T22:36:12.534Z,15.02
2022-11-09T22:41:17.355Z,15.01
2022-11-09T22:46:20.643Z,15.04
2022-11-09T22:51:24.004Z,15.06
2022-11-09T22:56:28.509Z,15.09
2022-11-09T23:01:31.898Z,15.10
2022-11-09T23:06:35.133Z,15.15
2022-11-09T23:11:39.732Z,15.16
2022-11-09T23:16:42.924Z,15.17
2022-11-09T23:21:46.080Z,15.14
2022-11-09T23:26:50.644Z,15.08
2022-11-09T23:31:53.819Z,15.02
2022-11-09T23:36:56.964Z,14.98
2022-11-09T23:42:01.478Z,14.96
2022-11-09T23:47:04.634Z,14.97
2022-11-09T23:52:07.756Z,14.99
2022-11-09T23:57:12.359Z,14.93
